SondeTracker

Meteorological Radiosondes Database

Operations

Sounding was ended - last measurement: 2022-12-07 00:57:02z

MAP
About Radiosonde

Number: U2330310

Launch Site: Washington [VA] (US)

Type: RS41

AUX: NO

Frequency: 403.000 MHz

Max Speed: 185 km/h at 33085 m

Average Speed: 89.94 km/h

Max Altitude: 33294 m

Average Ascent Speed: 5.12 m/s

Average Descent Speed: 24.14 m/s

Status: UNKNOWN

Status Changes
Launch Site Type AUX Frequency Status Finder Landing Point Description Changes made by
APRS Statistics

Received Frames: 293

First Frame [UTC]: 2022-12-06 23:20:25z

Last Frame [UTC]: 2022-12-07 00:57:02z

Receivers: K4KDR-12, KB3ZOX, W4DEX-14

Flight Time: 01:36:37 h

Distance From First Measurement: 144.09 km

Nearest City: Dover [DE] (US) [22.76 km]

Nearest Hunter: KB3ZOX [81.42 km]

Ground Altitude: 19 m

Distance from QTH: 0.00 km

APRS Data
Receiver Number Date/Time [UTC] φ λ Course [°] Speed [km/h] Altitude [m] Description
W4DEX-14U23303102022-12-07 00:57:0238.9974-75.6788803723589Clb=-25.2m/s t=-61.0C h=4.5% 403.00MHz Type=RS41-NG Details on http://radiosondy.info
W4DEX-14U23303102022-12-07 00:56:4238.9974-75.6805971923975Clb=-26.2m/s t=-60.8C h=4.4% 403.00MHz Type=RS41-NG batt=2.5V Details on http://radiosondy.info
W4DEX-14U23303102022-12-07 00:56:2138.9972-75.6813603524374Clb=-27.3m/s t=-61.8C h=4.9% 403.00MHz Type=RS41-NG Details on http://radiosondy.info
W4DEX-14U23303102022-12-07 00:56:0138.9965-75.6828685724791Clb=-28.1m/s t=-61.4C h=5.2% 403.00MHz Type=RS41-NG Details on http://radiosondy.info
W4DEX-14U23303102022-12-07 00:55:4038.9955-75.6852626925227Clb=-30.1m/s t=-57.7C h=3.7% 403.00MHz Type=RS41-NG batt=2.5V Details on http://radiosondy.info
W4DEX-14U23303102022-12-07 00:55:2038.994-75.688647625676Clb=-31.0m/s t=-58.2C h=3.9% 403.00MHz Type=RS41-NG Details on http://radiosondy.info
W4DEX-14U23303102022-12-07 00:53:4338.9919-75.7048808127990Clb=-34.2m/s t=-53.3C h=3.4% 403.00MHz Type=RS41-NG Details on http://radiosondy.info
W4DEX-14U23303102022-12-07 00:53:2138.9913-75.7099110428571Clb=-34.4m/s t=-50.1C h=2.6% 403.00MHz Type=RS41-NG TxPastBurst=8h30m batt=2.5V Details on http://radiosondy.info
W4DEX-14U23303102022-12-07 00:52:5638.9909-75.71488211329249Clb=-38.8m/s t=-51.7C h=3.1% 403.00MHz Type=RS41-NG Details on http://radiosondy.info
W4DEX-14U23303102022-12-07 00:52:3438.9897-75.727213529861Clb=-42.0m/s t=-50.3C h=3.0% 403.00MHz Type=RS41-NG Details on http://radiosondy.info
W4DEX-14U23303102022-12-07 00:52:0938.9885-75.72648316130493Clb=-45.7m/s t=-48.2C h=2.5% 403.00MHz Type=RS41-NG batt=2.5V Details on http://radiosondy.info
W4DEX-14U23303102022-12-07 00:50:2038.99-75.76549118533294Clb=5.8m/s t=-42.5C h=1.9% 403.00MHz Type=RS41-NG Details on http://radiosondy.info
W4DEX-14U23303102022-12-07 00:49:2338.9906-75.78858918533085Clb=3.3m/s t=-43.4C h=1.9% 403.00MHz Type=RS41-NG Details on http://radiosondy.info
W4DEX-14U23303102022-12-07 00:48:5638.991-75.79928517832973Clb=4.4m/s t=-44.5C h=2.1% 403.00MHz Type=RS41-NG batt=2.6V Details on http://radiosondy.info
W4DEX-14U23303102022-12-07 00:48:3438.9918-75.807610317832881Clb=2.9m/s t=-44.9C h=2.1% 403.00MHz Type=RS41-NG Details on http://radiosondy.info
W4DEX-14U23303102022-12-07 00:46:5338.9926-75.84328916132461Clb=3.4m/s t=-46.2C h=2.2% 403.00MHz Type=RS41-NG Details on http://radiosondy.info
W4DEX-14U23303102022-12-07 00:46:3238.9931-75.851410116932359Clb=4.7m/s t=-46.5C h=2.2% 403.00MHz Type=RS41-NG TxPastBurst=8h30m batt=2.5V Details on http://radiosondy.info
W4DEX-14U23303102022-12-07 00:45:5638.993-75.86338216332207Clb=3.2m/s t=-47.3C h=2.3% 403.00MHz Type=RS41-NG Details on http://radiosondy.info
W4DEX-14U23303102022-12-07 00:45:2738.9931-75.8738415732082Clb=4.3m/s t=-47.6C h=2.4% 403.00MHz Type=RS41-NG Details on http://radiosondy.info
W4DEX-14U23303102022-12-07 00:43:0538.9932-75.92818415431390Clb=3.4m/s t=-49.9C h=2.6% 403.00MHz Type=RS41-NG batt=2.5V Details on http://radiosondy.info
W4DEX-14U23303102022-12-07 00:42:4438.9931-75.93789314431262Clb=3.4m/s t=-50.8C h=2.9% 403.00MHz Type=RS41-NG Details on http://radiosondy.info
W4DEX-14U23303102022-12-07 00:42:3038.9927-75.94588616131155Clb=5.4m/s t=-50.3C h=2.7% 403.00MHz Type=RS41-NG Details on http://radiosondy.info
W4DEX-14U23303102022-12-07 00:42:1038.9923-75.95419215631053Clb=5.5m/s t=-50.0C h=2.8% 403.00MHz Type=RS41-NG batt=2.5V Details on http://radiosondy.info
W4DEX-14U23303102022-12-07 00:41:5738.9918-75.96259215430944Clb=4.0m/s t=-49.4C h=2.7% 403.00MHz Type=RS41-NG Details on http://radiosondy.info
W4DEX-14U23303102022-12-07 00:41:5638.9911-75.97069614830834Clb=6.9m/s t=-49.3C h=2.6% 403.00MHz Type=RS41-NG Details on http://radiosondy.info
W4DEX-14U23303102022-12-07 00:41:5538.9905-75.97757414130738Clb=4.9m/s t=-48.8C h=2.5% 403.00MHz Type=RS41-NG TxPastBurst=8h30m batt=2.5V Details on http://radiosondy.info
W4DEX-14U23303102022-12-07 00:41:5338.9897-75.98417613330638Clb=7.4m/s t=-49.9C h=2.7% 403.00MHz Type=RS41-NG Details on http://radiosondy.info
W4DEX-14U23303102022-12-07 00:41:4938.9887-75.99047914430538Clb=7.8m/s t=-49.3C h=2.6% 403.00MHz Type=RS41-NG Details on http://radiosondy.info
W4DEX-14U23303102022-12-07 00:41:4538.9875-75.99688513330430Clb=6.8m/s t=-49.2C h=2.7% 403.00MHz Type=RS41-NG batt=2.6V Details on http://radiosondy.info
W4DEX-14U23303102022-12-07 00:41:3338.9816-76.02567113729950Clb=8.2m/s t=-50.3C h=2.6% 403.00MHz Type=RS41-NG Details on http://radiosondy.info
W4DEX-14U23303102022-12-07 00:41:3238.9802-76.03227213129840Clb=7.9m/s t=-51.6C h=2.9% 403.00MHz Type=RS41-NG batt=2.5V Details on http://radiosondy.info
W4DEX-14U23303102022-12-07 00:41:3138.9787-76.03857611929726Clb=6.3m/s t=-51.8C h=2.9% 403.00MHz Type=RS41-NG Details on http://radiosondy.info
W4DEX-14U23303102022-12-07 00:41:3038.9774-76.04388511329631Clb=4.6m/s t=-52.4C h=3.1% 403.00MHz Type=RS41-NG Details on http://radiosondy.info
KB3ZOXU23303102022-12-07 00:41:2538.9748-76.07339611929108Clb=6.6m/s t=-52.2C h=0.5% 403.000MHz Type=RS41-NG rdzTTGOsonde
KB3ZOXU23303102022-12-07 00:41:2438.9747-76.08019712428995Clb=5.0m/s t=-51.8C h=0.5% 403.000MHz Type=RS41-NG rdzTTGOsonde
KB3ZOXU23303102022-12-07 00:41:2238.9747-76.0899310928851Clb=6.3m/s t=-51.8C h=0.5% 403.000MHz Type=RS41-NG rdzTTGOsonde
KB3ZOXU23303102022-12-07 00:41:1438.9748-76.0958919428732Clb=7.7m/s t=-51.6C h=0.5% 403.000MHz Type=RS41-NG rdzTTGOsonde
KB3ZOXU23303102022-12-07 00:40:4538.9745-76.1029839628602Clb=6.1m/s t=-51.2C h=0.5% 403.000MHz Type=RS41-NG rdzTTGOsonde
W4DEX-14U23303102022-12-07 00:39:5738.9737-76.112729328415Clb=4.5m/s t=-52.3C h=2.9% 403.00MHz Type=RS41-NG TxPastBurst=8h30m batt=2.6V Details on http://radiosondy.info
W4DEX-14U23303102022-12-07 00:39:0338.9722-76.1209738328193Clb=5.4m/s t=-53.6C h=3.1% 403.00MHz Type=RS41-NG Details on http://radiosondy.info
W4DEX-14U23303102022-12-07 00:38:4038.972-76.1248898528096Clb=5.3m/s t=-54.4C h=3.2% 403.00MHz Type=RS41-NG Details on http://radiosondy.info
KB3ZOXU23303102022-12-07 00:38:2338.9718-76.1278858128024Clb=7.0m/s t=-55.6C h=0.7% 403.000MHz Type=RS41-NG rdzTTGOsonde
W4DEX-14U23303102022-12-07 00:38:1838.9717-76.1289797828000Clb=8.1m/s t=-55.5C h=3.4% 403.00MHz Type=RS41-NG batt=2.5V Details on http://radiosondy.info
W4DEX-14U23303102022-12-07 00:37:5238.9712-76.1325737627896Clb=7.3m/s t=-56.3C h=3.7% 403.00MHz Type=RS41-NG Details on http://radiosondy.info
KB3ZOXU23303102022-12-07 00:37:4438.9711-76.1337988927865Clb=3.6m/s t=-56.3C h=0.7% 403.000MHz Type=RS41-NG rdzTTGOsonde
W4DEX-14U23303102022-12-07 00:37:2838.971-76.136897427801Clb=7.3m/s t=-55.9C h=3.5% 403.00MHz Type=RS41-NG Details on http://radiosondy.info
W4DEX-14U23303102022-12-07 00:37:0138.9706-76.1396807827700Clb=7.8m/s t=-56.4C h=3.6% 403.00MHz Type=RS41-NG batt=2.6V Details on http://radiosondy.info
KB3ZOXU23303102022-12-07 00:37:0038.9706-76.1396808027700Clb=7.8m/s t=-56.4C h=0.7% 403.000MHz Type=RS41-NG rdzTTGOsonde
W4DEX-14U23303102022-12-07 00:36:3738.9701-76.1432887627596Clb=7.7m/s t=-56.8C h=3.8% 403.00MHz Type=RS41-NG Details on http://radiosondy.info
KB3ZOXU23303102022-12-07 00:36:2638.9699-76.1447858527555Clb=5.0m/s t=-56.8C h=0.8% 403.000MHz Type=RS41-NG rdzTTGOsonde
W4DEX-14U23303102022-12-07 00:36:1138.9698-76.1468887827496Clb=7.1m/s t=-56.6C h=3.9% 403.00MHz Type=RS41-NG Details on http://radiosondy.info
KB3ZOXU23303102022-12-07 00:35:5038.9697-76.15938727410Clb=4.2m/s t=-56.2C h=0.7% 403.000MHz Type=RS41-NG rdzTTGOsonde
W4DEX-14U23303102022-12-07 00:35:4838.9697-76.1505878027397Clb=8.5m/s t=-56.2C h=3.7% 403.00MHz Type=RS41-NG TxPastBurst=8h30m batt=2.6V Details on http://radiosondy.info
W4DEX-14U23303102022-12-07 00:35:2238.9696-76.1543798027298Clb=7.3m/s t=-56.4C h=3.7% 403.00MHz Type=RS41-NG Details on http://radiosondy.info
KB3ZOXU23303102022-12-07 00:35:1438.9694-76.1555838727267Clb=5.5m/s t=-56.5C h=0.8% 403.000MHz Type=RS41-NG rdzTTGOsonde
W4DEX-14U23303102022-12-07 00:35:0138.9691-76.158728027206Clb=5.2m/s t=-56.4C h=3.7% 403.00MHz Type=RS41-NG Details on http://radiosondy.info
W4DEX-14U23303102022-12-07 00:34:3638.9685-76.1617838927117Clb=4.4m/s t=-56.7C h=3.7% 403.00MHz Type=RS41-NG batt=2.6V Details on http://radiosondy.info
W4DEX-14U23303102022-12-07 00:34:1338.9678-76.1658717627028Clb=5.0m/s t=-57.3C h=4.0% 403.00MHz Type=RS41-NG Details on http://radiosondy.info
W4DEX-14U23303102022-12-07 00:33:4738.9673-76.1694887426942Clb=7.2m/s t=-57.2C h=3.8% 403.00MHz Type=RS41-NG Details on http://radiosondy.info
W4DEX-14U23303102022-12-07 00:33:2238.9666-76.1726686526857Clb=5.9m/s t=-57.5C h=3.9% 403.00MHz Type=RS41-NG batt=2.5V Details on http://radiosondy.info
W4DEX-14U23303102022-12-07 00:32:5638.9661-76.1757887026770Clb=7.4m/s t=-57.5C h=3.9% 403.00MHz Type=RS41-NG Details on http://radiosondy.info
W4DEX-14U23303102022-12-07 00:32:2938.9659-76.1791927426682Clb=5.2m/s t=-57.4C h=3.9% 403.00MHz Type=RS41-NG Details on http://radiosondy.info
W4DEX-14U23303102022-12-07 00:32:0138.9658-76.1826908326592Clb=5.8m/s t=-57.4C h=3.9% 403.00MHz Type=RS41-NG TxPastBurst=8h30m batt=2.5V Details on http://radiosondy.info
KB3ZOXU23303102022-12-07 00:31:5438.9657-76.1833847826575Clb=4.7m/s t=-57.6C h=0.8% 403.000MHz Type=RS41-NG rdzTTGOsonde
KB3ZOXU23303102022-12-07 00:31:1738.965-76.1885686926445Clb=7.1m/s t=-58.1C h=0.8% 403.000MHz Type=RS41-NG rdzTTGOsonde
KB3ZOXU23303102022-12-07 00:30:4338.964-76.1931708026316Clb=7.0m/s t=-58.9C h=0.9% 403.000MHz Type=RS41-NG rdzTTGOsonde
KB3ZOXU23303102022-12-07 00:30:0638.9632-76.1979607026178Clb=6.1m/s t=-58.6C h=0.9% 403.000MHz Type=RS41-NG rdzTTGOsonde
KB3ZOXU23303102022-12-07 00:28:4838.9597-76.2085736925898Clb=6.1m/s t=-58.9C h=0.9% 403.000MHz Type=RS41-NG rdzTTGOsonde
KB3ZOXU23303102022-12-07 00:28:0038.9574-76.2146717825733Clb=5.2m/s t=-58.9C h=0.9% 403.000MHz Type=RS41-NG rdzTTGOsonde
KB3ZOXU23303102022-12-07 00:27:4238.9413-76.24451062624080Clb=4.4m/s t=-60.2C h=1.1% 403.000MHz Type=RS41-NG rdzTTGOsonde
K4KDR-12U23303102022-12-07 00:27:1838.9419-76.24691311723872Clb=5.0m/s t=-60.4C h=1.0% p=-1.0hPa 403.000 MHz Type=RS41-NG ser=U2330310 Radiosonde
K4KDR-12U23303102022-12-07 00:26:5938.9424-76.2542785423535Clb=4.7m/s t=-60.4C h=1.0% p=-1.0hPa 403.000 MHz Type=RS41-NG ser=U2330310 Radiosonde
KB3ZOXU23303102022-12-07 00:26:4338.9415-76.2614855023252Clb=5.2m/s t=-60.8C h=1.3% 403.000MHz Type=RS41-NG rdzTTGOsonde
K4KDR-12U23303102022-12-07 00:26:2938.9411-76.2634634623178Clb=6.9m/s t=-61.2C h=1.2% p=-1.0hPa 403.000 MHz Type=RS41-NG ser=U2330310 Radiosonde
KB3ZOXU23303102022-12-07 00:26:0938.9407-76.2645704323121Clb=6.6m/s t=-61.7C h=1.4% 403.000MHz Type=RS41-NG rdzTTGOsonde
KB3ZOXU23303102022-12-07 00:25:3238.9397-76.2663622222988Clb=6.7m/s t=-62.9C h=1.6% 403.000MHz Type=RS41-NG rdzTTGOsonde
KB3ZOXU23303102022-12-07 00:24:5738.9393-76.26721101522865Clb=5.3m/s t=-64.0C h=1.7% 403.000MHz Type=RS41-NG rdzTTGOsonde
K4KDR-12U23303102022-12-07 00:24:4538.9394-76.2681802822794Clb=6.1m/s t=-64.3C h=1.5% p=-1.0hPa 403.000 MHz Type=RS41-NG ser=U2330310 Radiosonde
W4DEX-14U23303102022-12-07 00:24:2038.9395-76.26871033522745Clb=5.7m/s t=-64.7C h=6.0% 403.00MHz Type=RS41-NG Details on http://radiosondy.info
KB3ZOXU23303102022-12-07 00:24:1938.9395-76.26871043022745Clb=5.8m/s t=-64.7C h=1.8% 403.000MHz Type=RS41-NG rdzTTGOsonde
W4DEX-14U23303102022-12-07 00:23:5538.94-76.27031094322666Clb=4.4m/s t=-64.4C h=6.0% 403.00MHz Type=RS41-NG batt=2.6V Details on http://radiosondy.info
KB3ZOXU23303102022-12-07 00:23:4338.9401-76.2711114422636Clb=5.3m/s t=-64.3C h=1.7% 403.000MHz Type=RS41-NG rdzTTGOsonde
W4DEX-14U23303102022-12-07 00:23:2838.9403-76.2723834122591Clb=4.9m/s t=-63.9C h=5.8% 403.00MHz Type=RS41-NG Details on http://radiosondy.info
KB3ZOXU23303102022-12-07 00:23:0638.9404-76.2739934122531Clb=3.8m/s t=-63.6C h=1.8% 403.000MHz Type=RS41-NG rdzTTGOsonde
W4DEX-14U23303102022-12-07 00:23:0138.9404-76.2742993922516Clb=5.8m/s t=-63.4C h=5.7% 403.00MHz Type=RS41-NG Details on http://radiosondy.info
K4KDR-12U23303102022-12-07 00:22:5738.9405-76.2745944322507Clb=5.7m/s t=-63.4C h=1.5% p=-1.0hPa 403.000 MHz Type=RS41-NG ser=U2330310 Radiosonde
W4DEX-14U23303102022-12-07 00:22:3338.9404-76.2761914322442Clb=4.0m/s t=-63.5C h=5.6% 403.00MHz Type=RS41-NG TxPastBurst=8h30m batt=2.5V Details on http://radiosondy.info
W4DEX-14U23303102022-12-07 00:22:0838.9404-76.2782965022373Clb=5.5m/s t=-63.7C h=5.8% 403.00MHz Type=RS41-NG Details on http://radiosondy.info
W4DEX-14U23303102022-12-07 00:21:4238.9406-76.2804985222304Clb=4.9m/s t=-63.6C h=5.7% 403.00MHz Type=RS41-NG Details on http://radiosondy.info
W4DEX-14U23303102022-12-07 00:21:1738.9404-76.2829765022233Clb=4.1m/s t=-64.1C h=5.9% 403.00MHz Type=RS41-NG batt=2.6V Details on http://radiosondy.info
K4KDR-12U23303102022-12-07 00:21:1338.9403-76.2841805622201Clb=5.0m/s t=-64.3C h=1.7% p=-1.0hPa 403.000 MHz Type=RS41-NG ser=U2330310 Radiosonde
KB3ZOXU23303102022-12-07 00:20:5238.9401-76.2851774122167Clb=5.5m/s t=-64.3C h=1.9% 403.000MHz Type=RS41-NG rdzTTGOsonde
W4DEX-14U23303102022-12-07 00:20:5138.9401-76.2852775022163Clb=3.9m/s t=-64.2C h=6.0% 403.00MHz Type=RS41-NG Details on http://radiosondy.info
W4DEX-14U23303102022-12-07 00:20:2838.9397-76.2876644322092Clb=4.9m/s t=-64.4C h=6.1% 403.00MHz Type=RS41-NG Details on http://radiosondy.info
KB3ZOXU23303102022-12-07 00:20:1838.9395-76.2882814622067Clb=4.8m/s t=-64.6C h=2.0% 403.000MHz Type=RS41-NG rdzTTGOsonde
W4DEX-14U23303102022-12-07 00:20:0038.9393-76.2896943922020Clb=4.5m/s t=-64.8C h=6.3% 403.00MHz Type=RS41-NG batt=2.5V Details on http://radiosondy.info
KB3ZOXU23303102022-12-07 00:19:4038.9392-76.2909944421967Clb=4.5m/s t=-64.9C h=2.1% 403.000MHz Type=RS41-NG rdzTTGOsonde
W4DEX-14U23303102022-12-07 00:19:3538.9392-76.2914843321946Clb=5.8m/s t=-64.9C h=6.2% 403.00MHz Type=RS41-NG Details on http://radiosondy.info
K4KDR-12U23303102022-12-07 00:19:2938.9392-76.2926893321889Clb=4.4m/s t=-65.2C h=1.9% p=-1.0hPa 403.000 MHz Type=RS41-NG ser=U2330310 Radiosonde
W4DEX-14U23303102022-12-07 00:19:0938.9392-76.293953321868Clb=4.2m/s t=-65.1C h=6.4% 403.00MHz Type=RS41-NG Details on http://radiosondy.info
W4DEX-14U23303102022-12-07 00:18:4538.9395-76.2945973521792Clb=5.0m/s t=-65.2C h=6.3% 403.00MHz Type=RS41-NG TxPastBurst=8h30m batt=2.6V Details on http://radiosondy.info
W4DEX-14U23303102022-12-07 00:18:1838.9399-76.29611223921716Clb=5.5m/s t=-65.6C h=6.4% 403.00MHz Type=RS41-NG Details on http://radiosondy.info
W4DEX-14U23303102022-12-07 00:17:5238.9402-76.2978964621637Clb=6.6m/s t=-66.7C h=7.0% 403.00MHz Type=RS41-NG Details on http://radiosondy.info
K4KDR-12U23303102022-12-07 00:17:4338.9402-76.2987924321610Clb=4.8m/s t=-66.7C h=2.2% p=-1.0hPa 403.000 MHz Type=RS41-NG ser=U2330310 Radiosonde
W4DEX-14U23303102022-12-07 00:17:2538.9402-76.3001804321558Clb=4.3m/s t=-66.3C h=6.9% 403.00MHz Type=RS41-NG batt=2.5V Details on http://radiosondy.info
W4DEX-14U23303102022-12-07 00:16:5838.94-76.302704321476Clb=5.7m/s t=-65.8C h=6.7% 403.00MHz Type=RS41-NG Details on http://radiosondy.info
W4DEX-14U23303102022-12-07 00:16:3238.9396-76.3039883721395Clb=5.5m/s t=-65.9C h=6.6% 403.00MHz Type=RS41-NG Details on http://radiosondy.info
KB3ZOXU23303102022-12-07 00:16:2338.9395-76.3044683521373Clb=5.6m/s t=-66.4C h=2.4% 403.000MHz Type=RS41-NG rdzTTGOsonde
W4DEX-14U23303102022-12-07 00:16:0538.9391-76.3056683321312Clb=6.3m/s t=-66.2C h=7.1% 403.00MHz Type=RS41-NG batt=2.6V Details on http://radiosondy.info
K4KDR-12U23303102022-12-07 00:15:5638.9388-76.3062693721279Clb=6.1m/s t=-66.1C h=2.1% p=-1.0hPa 403.000 MHz Type=RS41-NG ser=U2330310 Radiosonde
KB3ZOXU23303102022-12-07 00:15:5138.9387-76.3065633321262Clb=5.4m/s t=-66.0C h=2.3% 403.000MHz Type=RS41-NG rdzTTGOsonde
W4DEX-14U23303102022-12-07 00:15:4138.9386-76.307533121229Clb=6.8m/s t=-65.8C h=6.5% 403.00MHz Type=RS41-NG Details on http://radiosondy.info
W4DEX-14U23303102022-12-07 00:15:1638.9381-76.3084442821146Clb=6.5m/s t=-66.2C h=6.9% 403.00MHz Type=RS41-NG Details on http://radiosondy.info
KB3ZOXU23303102022-12-07 00:15:1538.9381-76.3084453121146Clb=6.5m/s t=-66.3C h=2.4% 403.000MHz Type=RS41-NG rdzTTGOsonde
W4DEX-14U23303102022-12-07 00:14:4938.9376-76.3094832821063Clb=6.0m/s t=-66.5C h=7.2% 403.00MHz Type=RS41-NG TxPastBurst=8h30m batt=2.5V Details on http://radiosondy.info
KB3ZOXU23303102022-12-07 00:14:3738.9374-76.31672421026Clb=5.7m/s t=-66.3C h=2.5% 403.000MHz Type=RS41-NG rdzTTGOsonde
W4DEX-14U23303102022-12-07 00:14:2438.9371-76.3106653920981Clb=5.7m/s t=-66.1C h=6.9% 403.00MHz Type=RS41-NG Details on http://radiosondy.info
K4KDR-12U23303102022-12-07 00:14:1238.9367-76.3113633320941Clb=5.1m/s t=-66.0C h=2.2% p=-1.0hPa 403.000 MHz Type=RS41-NG ser=U2330310 Radiosonde
KB3ZOXU23303102022-12-07 00:14:0138.9364-76.3119604620908Clb=5.6m/s t=-66.1C h=2.5% 403.000MHz Type=RS41-NG rdzTTGOsonde
W4DEX-14U23303102022-12-07 00:13:5838.9363-76.3121504120897Clb=5.4m/s t=-66.1C h=6.9% 403.00MHz Type=RS41-NG Details on http://radiosondy.info
W4DEX-14U23303102022-12-07 00:13:3338.9355-76.3137713320816Clb=4.6m/s t=-66.3C h=6.8% 403.00MHz Type=RS41-NG batt=2.6V Details on http://radiosondy.info
KB3ZOXU23303102022-12-07 00:13:2738.9353-76.3141513720789Clb=6.3m/s t=-66.4C h=2.4% 403.000MHz Type=RS41-NG rdzTTGOsonde
W4DEX-14U23303102022-12-07 00:13:0838.9348-76.315393520732Clb=4.6m/s t=-66.7C h=6.9% 403.00MHz Type=RS41-NG Details on http://radiosondy.info
KB3ZOXU23303102022-12-07 00:12:5138.9345-76.3158722020683Clb=5.0m/s t=-67.0C h=2.5% 403.000MHz Type=RS41-NG rdzTTGOsonde
W4DEX-14U23303102022-12-07 00:12:4138.9342-76.3164703520652Clb=4.9m/s t=-67.4C h=7.5% 403.00MHz Type=RS41-NG Details on http://radiosondy.info
W4DEX-14U23303102022-12-07 00:12:1738.933-76.3196504320494Clb=4.7m/s t=-67.1C h=7.2% 403.00MHz Type=RS41-NG Details on http://radiosondy.info
KB3ZOXU23303102022-12-07 00:12:0538.9328-76.3202364420461Clb=4.8m/s t=-67.1C h=2.6% 403.000MHz Type=RS41-NG rdzTTGOsonde
W4DEX-14U23303102022-12-07 00:11:5638.932-76.3212433920415Clb=5.7m/s t=-66.8C h=7.2% 403.00MHz Type=RS41-NG Details on http://radiosondy.info
KB3ZOXU23303102022-12-07 00:11:4338.9311-76.322463920352Clb=4.5m/s t=-66.4C h=2.4% 403.000MHz Type=RS41-NG rdzTTGOsonde
W4DEX-14U23303102022-12-07 00:11:4138.9308-76.3222264120336Clb=4.5m/s t=-66.3C h=7.0% 403.00MHz Type=RS41-NG TxPastBurst=8h30m batt=2.6V Details on http://radiosondy.info
K4KDR-12U23303102022-12-07 00:11:3638.9299-76.323334320285Clb=6.1m/s t=-66.5C h=-1.0% p=-1.0hPa 403.000 MHz Type=RS41-NG ser=U2330310 Radiosonde
W4DEX-14U23303102022-12-07 00:11:2938.9295-76.3232153720258Clb=5.4m/s t=-66.5C h=7.1% 403.00MHz Type=RS41-NG Details on http://radiosondy.info
KB3ZOXU23303102022-12-07 00:11:2638.9293-76.323263920247Clb=3.9m/s t=-66.5C h=2.6% 403.000MHz Type=RS41-NG rdzTTGOsonde
W4DEX-14U23303102022-12-07 00:11:1338.9282-76.3238313520179Clb=6.5m/s t=-65.9C h=6.9% 403.00MHz Type=RS41-NG Details on http://radiosondy.info
KB3ZOXU23303102022-12-07 00:11:0238.9275-76.3242202420136Clb=4.5m/s t=-65.8C h=2.4% 403.000MHz Type=RS41-NG rdzTTGOsonde
W4DEX-14U23303102022-12-07 00:10:5638.927-76.3245223320099Clb=4.9m/s t=-65.5C h=6.7% 403.00MHz Type=RS41-NG batt=2.5V Details on http://radiosondy.info
W4DEX-14U23303102022-12-07 00:10:5138.9259-76.3254403120018Clb=6.1m/s t=-65.0C h=6.5% 403.00MHz Type=RS41-NG Details on http://radiosondy.info
K4KDR-12U23303102022-12-07 00:10:4838.9253-76.3261613019957Clb=5.4m/s t=-273.0C h=-1.0% p=-1.0hPa 403.000 MHz Type=RS41-NG ser=U2330310 Radiosonde
W4DEX-14U23303102022-12-07 00:10:4638.9251-76.3265593019935Clb=5.9m/s t=-65.0C h=6.7% 403.00MHz Type=RS41-NG Details on http://radiosondy.info
KB3ZOXU23303102022-12-07 00:10:4338.9247-76.3271752219892Clb=4.5m/s t=-64.9C h=2.4% 403.000MHz Type=RS41-NG rdzTTGOsonde
W4DEX-14U23303102022-12-07 00:10:4138.9244-76.3275342419854Clb=6.0m/s t=-64.6C h=6.4% 403.00MHz Type=RS41-NG batt=2.6V Details on http://radiosondy.info
W4DEX-14U23303102022-12-07 00:10:2638.9239-76.3284711919771Clb=5.5m/s t=-64.3C h=6.4% 403.00MHz Type=RS41-NG Details on http://radiosondy.info
KB3ZOXU23303102022-12-07 00:10:2438.9239-76.3285542219760Clb=6.3m/s t=-64.3C h=2.3% 403.000MHz Type=RS41-NG rdzTTGOsonde
W4DEX-14U23303102022-12-07 00:10:1338.9234-76.329202219690Clb=6.1m/s t=-63.9C h=6.2% 403.00MHz Type=RS41-NG Details on http://radiosondy.info
KB3ZOXU23303102022-12-07 00:10:0238.9231-76.3294391319642Clb=5.3m/s t=-63.8C h=2.2% 403.000MHz Type=RS41-NG rdzTTGOsonde
W4DEX-14U23303102022-12-07 00:10:0138.9229-76.3296211519611Clb=5.6m/s t=-64.3C h=6.3% 403.00MHz Type=RS41-NG TxPastBurst=8h30m batt=2.5V Details on http://radiosondy.info
W4DEX-14U23303102022-12-07 00:10:0038.9227-76.3301241519534Clb=5.9m/s t=-64.1C h=6.4% 403.00MHz Type=RS41-NG Details on http://radiosondy.info
KB3ZOXU23303102022-12-07 00:09:5938.9227-76.3301241119534Clb=6.0m/s t=-64.1C h=2.3% 403.000MHz Type=RS41-NG rdzTTGOsonde
W4DEX-14U23303102022-12-07 00:09:5638.9225-76.3308781319455Clb=5.9m/s t=-64.0C h=6.5% 403.00MHz Type=RS41-NG Details on http://radiosondy.info
KB3ZOXU23303102022-12-07 00:09:5438.9224-76.331591719423Clb=5.6m/s t=-64.3C h=2.5% 403.000MHz Type=RS41-NG rdzTTGOsonde
W4DEX-14U23303102022-12-07 00:09:5238.9223-76.3314691719376Clb=5.0m/s t=-64.0C h=6.6% 403.00MHz Type=RS41-NG batt=2.6V Details on http://radiosondy.info
KB3ZOXU23303102022-12-07 00:09:4838.9222-76.33191051719319Clb=4.6m/s t=-63.5C h=2.4% 403.000MHz Type=RS41-NG rdzTTGOsonde
KB3ZOXU23303102022-12-07 00:09:4738.922-76.3334933519211Clb=3.2m/s t=-63.5C h=2.5% 403.000MHz Type=RS41-NG rdzTTGOsonde
KB3ZOXU23303102022-12-07 00:09:4638.9218-76.3351673319104Clb=5.9m/s t=-63.8C h=2.8% 403.000MHz Type=RS41-NG rdzTTGOsonde
KB3ZOXU23303102022-12-07 00:09:4538.9212-76.3369613718999Clb=4.5m/s t=-64.1C h=2.9% 403.000MHz Type=RS41-NG rdzTTGOsonde
W4DEX-14U23303102022-12-07 00:09:4438.9208-76.3387594418920Clb=5.4m/s calibration 7% Type=RS41 batt=2.7V Details on http://radiosondy.info
KB3ZOXU23303102022-12-07 00:09:4238.9201-76.3421913518777Clb=4.5m/s t=-64.4C h=3.4% 403.000MHz Type=RS41-NG rdzTTGOsonde
KB3ZOXU23303102022-12-07 00:09:4138.9195-76.346874318615Clb=5.4m/s t=-65.4C h=4.2% 403.000MHz Type=RS41-NG rdzTTGOsonde
KB3ZOXU23303102022-12-07 00:09:2938.9191-76.3486844318518Clb=5.3m/s t=-66.9C h=4.7% 403.000MHz Type=RS41-NG rdzTTGOsonde
KB3ZOXU23303102022-12-07 00:08:4938.9188-76.3525863918387Clb=3.6m/s t=-68.5C h=5.6% 403.000MHz Type=RS41-NG rdzTTGOsonde
KB3ZOXU23303102022-12-07 00:08:1238.9186-76.3555895418290Clb=3.8m/s t=-69.2C h=5.8% 403.000MHz Type=RS41-NG rdzTTGOsonde
KB3ZOXU23303102022-12-07 00:07:2738.9184-76.3602915418155Clb=5.4m/s t=-71.4C h=6.6% 403.000MHz Type=RS41-NG rdzTTGOsonde
KB3ZOXU23303102022-12-07 00:06:5538.9179-76.3634843718060Clb=6.5m/s t=-71.2C h=6.4% 403.000MHz Type=RS41-NG rdzTTGOsonde
KB3ZOXU23303102022-12-07 00:06:1838.9182-76.36651003917931Clb=5.9m/s t=-71.0C h=6.7% 403.000MHz Type=RS41-NG rdzTTGOsonde
KB3ZOXU23303102022-12-07 00:05:4138.9191-76.36951223517796Clb=6.3m/s t=-70.5C h=6.0% 403.000MHz Type=RS41-NG rdzTTGOsonde
K4KDR-12U23303102022-12-07 00:05:3738.9194-76.37011147017774Clb=4.4m/s t=-70.6C h=5.9% p=-1.0hPa 403.000 MHz Type=RS41-NG ser=U2330310 Radiosonde
KB3ZOXU23303102022-12-07 00:05:0638.9209-76.37321236517685Clb=5.8m/s t=-70.3C h=6.4% 403.000MHz Type=RS41-NG rdzTTGOsonde
KB3ZOXU23303102022-12-07 00:04:3338.9226-76.37751157017575Clb=5.9m/s t=-69.9C h=5.9% 403.000MHz Type=RS41-NG rdzTTGOsonde
KB3ZOXU23303102022-12-07 00:03:5738.9241-76.38281008917454Clb=5.8m/s t=-70.5C h=6.3% 403.000MHz Type=RS41-NG rdzTTGOsonde
KB3ZOXU23303102022-12-07 00:03:2438.9255-76.38831059317341Clb=5.1m/s t=-69.8C h=6.3% 403.000MHz Type=RS41-NG rdzTTGOsonde
KB3ZOXU23303102022-12-07 00:02:5038.9271-76.39411098017233Clb=5.2m/s t=-68.9C h=6.0% 403.000MHz Type=RS41-NG rdzTTGOsonde
KB3ZOXU23303102022-12-07 00:02:1638.9288-76.39931138517130Clb=5.9m/s t=-68.2C h=5.8% 403.000MHz Type=RS41-NG rdzTTGOsonde
KB3ZOXU23303102022-12-07 00:01:4038.9303-76.40471108517030Clb=5.2m/s t=-68.2C h=5.9% 403.000MHz Type=RS41-NG rdzTTGOsonde
KB3ZOXU23303102022-12-07 00:01:0538.9316-76.41031109416933Clb=4.5m/s t=-68.1C h=6.0% 403.000MHz Type=RS41-NG rdzTTGOsonde
KB3ZOXU23303102022-12-07 00:00:2938.9325-76.41661019616833Clb=4.2m/s t=-68.0C h=5.8% 403.000MHz Type=RS41-NG rdzTTGOsonde
KB3ZOXU23303102022-12-06 23:59:5638.9334-76.42271009416734Clb=4.4m/s t=-69.7C h=6.0% 403.000MHz Type=RS41-NG rdzTTGOsonde
KB3ZOXU23303102022-12-06 23:59:3938.934-76.4292939116625Clb=5.0m/s t=-70.3C h=6.4% 403.000MHz Type=RS41-NG rdzTTGOsonde
KB3ZOXU23303102022-12-06 23:59:3838.9345-76.4354939616519Clb=4.4m/s t=-70.1C h=6.0% 403.000MHz Type=RS41-NG rdzTTGOsonde
KB3ZOXU23303102022-12-06 23:59:3738.9348-76.4413908916420Clb=6.0m/s t=-69.8C h=5.7% 403.000MHz Type=RS41-NG rdzTTGOsonde
KB3ZOXU23303102022-12-06 23:59:3638.9351-76.4478939416312Clb=5.0m/s t=-69.5C h=5.6% 403.000MHz Type=RS41-NG rdzTTGOsonde
KB3ZOXU23303102022-12-06 23:59:3438.9351-76.4539949816211Clb=5.9m/s t=-69.4C h=5.5% 403.000MHz Type=RS41-NG rdzTTGOsonde
KB3ZOXU23303102022-12-06 23:59:3038.9355-76.460210610716110Clb=4.4m/s t=-68.9C h=5.2% 403.000MHz Type=RS41-NG rdzTTGOsonde
KB3ZOXU23303102022-12-06 23:59:1738.9363-76.467310011916010Clb=5.9m/s t=-69.1C h=5.2% 403.000MHz Type=RS41-NG rdzTTGOsonde
KB3ZOXU23303102022-12-06 23:59:0138.9371-76.47519611515907Clb=4.9m/s t=-68.8C h=5.3% 403.000MHz Type=RS41-NG rdzTTGOsonde
KB3ZOXU23303102022-12-06 23:59:0038.9375-76.48269311915805Clb=4.1m/s t=-68.3C h=5.1% 403.000MHz Type=RS41-NG rdzTTGOsonde
KB3ZOXU23303102022-12-06 23:58:5838.9373-76.49068612615701Clb=5.6m/s t=-67.9C h=4.9% 403.000MHz Type=RS41-NG rdzTTGOsonde
K4KDR-12U23303102022-12-06 23:58:5538.937-76.49568311515637Clb=4.5m/s t=-67.3C h=4.8% p=-1.0hPa 403.000 MHz Type=RS41-NG ser=U2330310 Radiosonde
KB3ZOXU23303102022-12-06 23:58:4738.9367-76.4998312415593Clb=4.6m/s t=-67.2C h=4.9% 403.000MHz Type=RS41-NG rdzTTGOsonde
KB3ZOXU23303102022-12-06 23:58:1538.9361-76.50638410915501Clb=5.4m/s t=-66.8C h=5.1% 403.000MHz Type=RS41-NG rdzTTGOsonde
KB3ZOXU23303102022-12-06 23:57:4238.9354-76.5138310015408Clb=4.2m/s t=-67.0C h=5.0% 403.000MHz Type=RS41-NG rdzTTGOsonde
KB3ZOXU23303102022-12-06 23:57:0338.9347-76.51948310015315Clb=4.1m/s t=-68.1C h=5.1% 403.000MHz Type=RS41-NG rdzTTGOsonde
KB3ZOXU23303102022-12-06 23:56:2738.9347-76.5257889115215Clb=4.2m/s t=-68.2C h=5.5% 403.000MHz Type=RS41-NG rdzTTGOsonde
KB3ZOXU23303102022-12-06 23:55:5338.9353-76.53211019315113Clb=3.8m/s t=-67.7C h=5.3% 403.000MHz Type=RS41-NG rdzTTGOsonde
KB3ZOXU23303102022-12-06 23:55:1938.9364-76.538811310415010Clb=5.9m/s t=-67.2C h=5.2% 403.000MHz Type=RS41-NG rdzTTGOsonde
KB3ZOXU23303102022-12-06 23:54:4838.9379-76.545411011514912Clb=4.2m/s t=-66.8C h=5.2% 403.000MHz Type=RS41-NG rdzTTGOsonde
KB3ZOXU23303102022-12-06 23:54:1538.94-76.552511012414812Clb=4.8m/s t=-66.2C h=5.3% 403.000MHz Type=RS41-NG rdzTTGOsonde
K4KDR-12U23303102022-12-06 23:54:0038.9411-76.556410911514762Clb=4.1m/s t=-65.8C h=5.0% p=-1.0hPa 403.000 MHz Type=RS41-NG ser=U2330310 Radiosonde
KB3ZOXU23303102022-12-06 23:53:4238.9421-76.5611011914715Clb=4.0m/s t=-65.5C h=5.6% 403.000MHz Type=RS41-NG rdzTTGOsonde
KB3ZOXU23303102022-12-06 23:53:0938.9444-76.567211013014624Clb=5.1m/s t=-64.9C h=5.8% 403.000MHz Type=RS41-NG rdzTTGOsonde
KB3ZOXU23303102022-12-06 23:52:3038.9473-76.57611613114515Clb=4.5m/s t=-64.9C h=6.6% 403.000MHz Type=RS41-NG rdzTTGOsonde
K4KDR-12U23303102022-12-06 23:52:2038.9484-76.57911713014478Clb=5.0m/s t=-64.7C h=6.3% p=-1.0hPa 403.000 MHz Type=RS41-NG ser=U2330310 Radiosonde
KB3ZOXU23303102022-12-06 23:51:5638.9502-76.58411413514419Clb=3.1m/s t=-64.7C h=7.0% 403.000MHz Type=RS41-NG rdzTTGOsonde
KB3ZOXU23303102022-12-06 23:51:3638.9531-76.592111415414324Clb=3.1m/s t=-66.2C h=8.4% 403.000MHz Type=RS41-NG rdzTTGOsonde
KB3ZOXU23303102022-12-06 23:51:2738.9561-76.600911514414230Clb=4.2m/s t=-66.0C h=9.2% 403.000MHz Type=RS41-NG rdzTTGOsonde
KB3ZOXU23303102022-12-06 23:51:1738.9587-76.609110913914141Clb=5.4m/s t=-66.2C h=10.3% 403.000MHz Type=RS41-NG rdzTTGOsonde
KB3ZOXU23303102022-12-06 23:51:0138.9614-76.617511512214044Clb=3.9m/s t=-65.6C h=10.3% 403.000MHz Type=RS41-NG rdzTTGOsonde
KB3ZOXU23303102022-12-06 23:50:5638.9644-76.626511215213937Clb=4.6m/s t=-65.4C h=11.4% 403.000MHz Type=RS41-NG rdzTTGOsonde
KB3ZOXU23303102022-12-06 23:50:5538.9674-76.636111215713841Clb=4.5m/s t=-65.6C h=12.8% 403.000MHz Type=RS41-NG rdzTTGOsonde
KB3ZOXU23303102022-12-06 23:50:5438.9702-76.645711116713748Clb=2.9m/s t=-65.8C h=14.3% 403.000MHz Type=RS41-NG rdzTTGOsonde
KB3ZOXU23303102022-12-06 23:50:5338.9729-76.65511015413662Clb=5.0m/s t=-65.5C h=15.5% 403.000MHz Type=RS41-NG rdzTTGOsonde
KB3ZOXU23303102022-12-06 23:50:5238.9753-76.664711016113572Clb=3.8m/s t=-65.6C h=17.5% 403.000MHz Type=RS41-NG rdzTTGOsonde
KB3ZOXU23303102022-12-06 23:50:4638.9779-76.674910815913478Clb=5.2m/s t=-65.2C h=19.8% 403.000MHz Type=RS41-NG rdzTTGOsonde
KB3ZOXU23303102022-12-06 23:50:2538.9803-76.684410914613390Clb=3.1m/s t=-65.4C h=24.1% 403.000MHz Type=RS41-NG rdzTTGOsonde
KB3ZOXU23303102022-12-06 23:49:5138.9824-76.69410613913283Clb=6.0m/s t=-65.5C h=27.3% 403.000MHz Type=RS41-NG rdzTTGOsonde
KB3ZOXU23303102022-12-06 23:49:2038.9839-76.702510913913207Clb=6.0m/s t=-65.2C h=29.1% 403.000MHz Type=RS41-NG rdzTTGOsonde
KB3ZOXU23303102022-12-06 23:48:4838.9862-76.711710713513085Clb=4.7m/s t=-65.4C h=33.2% 403.000MHz Type=RS41-NG rdzTTGOsonde
K4KDR-12U23303102022-12-06 23:48:4738.9864-76.712910613113072Clb=4.6m/s t=-65.4C h=33.6% p=-1.0hPa 403.000 MHz Type=RS41-NG ser=U2330310 Radiosonde
KB3ZOXU23303102022-12-06 23:48:1538.9883-76.720510914312992Clb=3.9m/s t=-65.2C h=31.8% 403.000MHz Type=RS41-NG rdzTTGOsonde
KB3ZOXU23303102022-12-06 23:47:5138.9908-76.729711315012899Clb=4.0m/s t=-64.9C h=27.7% 403.000MHz Type=RS41-NG rdzTTGOsonde
KB3ZOXU23303102022-12-06 23:47:1638.9933-76.73910914812807Clb=4.3m/s t=-64.7C h=26.4% 403.000MHz Type=RS41-NG rdzTTGOsonde
KB3ZOXU23303102022-12-06 23:46:4138.9957-76.748511214112714Clb=3.8m/s t=-64.2C h=27.2% 403.000MHz Type=RS41-NG rdzTTGOsonde
KB3ZOXU23303102022-12-06 23:46:0738.9984-76.758110915012625Clb=2.6m/s t=-63.7C h=28.8% 403.000MHz Type=RS41-NG rdzTTGOsonde
K4KDR-12U23303102022-12-06 23:45:3839.0009-76.767110915412539Clb=5.0m/s t=-63.4C h=30.2% p=-1.0hPa 403.000 MHz Type=RS41-NG ser=U2330310 Radiosonde
KB3ZOXU23303102022-12-06 23:45:3739.0009-76.767111115412539Clb=5.0m/s t=-63.4C h=30.7% 403.000MHz Type=RS41-NG rdzTTGOsonde
KB3ZOXU23303102022-12-06 23:45:0539.0033-76.776111214812454Clb=3.9m/s t=-63.1C h=32.8% 403.000MHz Type=RS41-NG rdzTTGOsonde
KB3ZOXU23303102022-12-06 23:44:3539.0055-76.785211114412372Clb=3.6m/s t=-62.8C h=35.7% 403.000MHz Type=RS41-NG rdzTTGOsonde
KB3ZOXU23303102022-12-06 23:44:0539.0076-76.794510515412286Clb=4.4m/s t=-62.5C h=40.0% 403.000MHz Type=RS41-NG rdzTTGOsonde
KB3ZOXU23303102022-12-06 23:43:4239.0097-76.804210814312199Clb=4.6m/s t=-62.2C h=45.8% 403.000MHz Type=RS41-NG rdzTTGOsonde
KB3ZOXU23303102022-12-06 23:43:2939.0115-76.81410414112105Clb=3.5m/s t=-61.9C h=51.1% 403.000MHz Type=RS41-NG rdzTTGOsonde
KB3ZOXU23303102022-12-06 23:43:1939.013-76.823210614112014Clb=3.0m/s t=-61.7C h=54.0% 403.000MHz Type=RS41-NG rdzTTGOsonde
KB3ZOXU23303102022-12-06 23:43:0139.0145-76.832410215411928Clb=4.2m/s t=-61.4C h=56.1% 403.000MHz Type=RS41-NG rdzTTGOsonde
KB3ZOXU23303102022-12-06 23:43:0039.0162-76.842410415411840Clb=4.2m/s t=-61.0C h=57.5% 403.000MHz Type=RS41-NG rdzTTGOsonde
KB3ZOXU23303102022-12-06 23:42:5439.018-76.852310415711748Clb=4.2m/s t=-60.3C h=55.8% 403.000MHz Type=RS41-NG rdzTTGOsonde
KB3ZOXU23303102022-12-06 23:42:2739.0199-76.862610616311664Clb=3.8m/s t=-59.8C h=56.9% 403.000MHz Type=RS41-NG rdzTTGOsonde
KB3ZOXU23303102022-12-06 23:41:5439.0222-76.87410717211571Clb=5.1m/s t=-58.9C h=56.8% 403.000MHz Type=RS41-NG rdzTTGOsonde
KB3ZOXU23303102022-12-06 23:41:2039.0244-76.885710716911469Clb=3.4m/s t=-58.1C h=57.5% 403.000MHz Type=RS41-NG rdzTTGOsonde
KB3ZOXU23303102022-12-06 23:40:4939.0268-76.896810617011375Clb=5.7m/s t=-57.3C h=56.9% 403.000MHz Type=RS41-NG rdzTTGOsonde
KB3ZOXU23303102022-12-06 23:40:1939.0292-76.907210716911285Clb=4.7m/s t=-56.7C h=57.3% 403.000MHz Type=RS41-NG rdzTTGOsonde
KB3ZOXU23303102022-12-06 23:39:5239.0316-76.91810915911193Clb=3.6m/s t=-56.1C h=57.5% 403.000MHz Type=RS41-NG rdzTTGOsonde
KB3ZOXU23303102022-12-06 23:39:3239.0338-76.927810515411106Clb=4.6m/s t=-55.5C h=58.7% 403.000MHz Type=RS41-NG rdzTTGOsonde
KB3ZOXU23303102022-12-06 23:39:1339.0359-76.937310915211015Clb=5.4m/s t=-54.8C h=57.2% 403.000MHz Type=RS41-NG rdzTTGOsonde
KB3ZOXU23303102022-12-06 23:38:5239.0379-76.946510614410926Clb=4.1m/s t=-54.3C h=58.9% 403.000MHz Type=RS41-NG rdzTTGOsonde
KB3ZOXU23303102022-12-06 23:38:3039.0401-76.956310813510827Clb=5.1m/s t=-53.5C h=57.5% 403.000MHz Type=RS41-NG rdzTTGOsonde
KB3ZOXU23303102022-12-06 23:38:1539.0421-76.965510613910732Clb=3.8m/s t=-52.6C h=57.3% 403.000MHz Type=RS41-NG rdzTTGOsonde
KB3ZOXU23303102022-12-06 23:38:1439.044-76.974710813310633Clb=4.7m/s t=-51.8C h=57.3% 403.000MHz Type=RS41-NG rdzTTGOsonde
KB3ZOXU23303102022-12-06 23:38:0539.0459-76.98410614410543Clb=3.8m/s t=-51.0C h=57.8% 403.000MHz Type=RS41-NG rdzTTGOsonde
KB3ZOXU23303102022-12-06 23:37:3739.0477-76.993210313910445Clb=5.5m/s t=-50.3C h=60.6% 403.000MHz Type=RS41-NG rdzTTGOsonde
KB3ZOXU23303102022-12-06 23:37:0439.0493-77.001910613510349Clb=4.6m/s t=-49.5C h=61.4% 403.000MHz Type=RS41-NG rdzTTGOsonde
KB3ZOXU23303102022-12-06 23:36:3139.0509-77.011210214110248Clb=4.0m/s t=-48.7C h=56.7% 403.000MHz Type=RS41-NG rdzTTGOsonde
KB3ZOXU23303102022-12-06 23:36:0239.0522-77.02110113510146Clb=4.3m/s t=-47.8C h=50.2% 403.000MHz Type=RS41-NG rdzTTGOsonde
K4KDR-12U23303102022-12-06 23:35:5539.0528-77.02619613110093Clb=4.5m/s t=-47.3C h=47.6% p=-1.0hPa 403.000 MHz Type=RS41-NG ser=U2330310 Radiosonde
KB3ZOXU23303102022-12-06 23:35:4239.0532-77.02969914310054Clb=4.6m/s t=-47.0C h=46.2% 403.000MHz Type=RS41-NG rdzTTGOsonde
KB3ZOXU23303102022-12-06 23:35:1839.0545-77.03971001359950Clb=3.2m/s t=-46.0C h=37.6% 403.000MHz Type=RS41-NG rdzTTGOsonde
KB3ZOXU23303102022-12-06 23:34:5739.0558-77.04891011379856Clb=5.9m/s t=-45.1C h=22.0% 403.000MHz Type=RS41-NG rdzTTGOsonde
K4KDR-12U23303102022-12-06 23:34:5439.0561-77.0511981379835Clb=4.0m/s t=-45.0C h=21.2% p=-1.0hPa 403.000 MHz Type=RS41-NG ser=U2330310 Radiosonde
KB3ZOXU23303102022-12-06 23:34:3639.057-77.058981359766Clb=4.2m/s t=-44.4C h=20.2% 403.000MHz Type=RS41-NG rdzTTGOsonde
KB3ZOXU23303102022-12-06 23:34:1639.058-77.0665991339672Clb=5.7m/s t=-43.6C h=21.0% 403.000MHz Type=RS41-NG rdzTTGOsonde
KB3ZOXU23303102022-12-06 23:33:5339.0588-77.0759951339571Clb=4.5m/s t=-42.8C h=23.6% 403.000MHz Type=RS41-NG rdzTTGOsonde
KB3ZOXU23303102022-12-06 23:33:4939.0593-77.0841941339488Clb=3.0m/s t=-42.1C h=22.8% 403.000MHz Type=RS41-NG rdzTTGOsonde
KB3ZOXU23303102022-12-06 23:33:3839.06-77.0927971249403Clb=3.3m/s t=-41.3C h=20.0% 403.000MHz Type=RS41-NG rdzTTGOsonde
KB3ZOXU23303102022-12-06 23:33:0939.0605-77.1012941229318Clb=4.5m/s t=-40.6C h=17.9% 403.000MHz Type=RS41-NG rdzTTGOsonde
KB3ZOXU23303102022-12-06 23:32:4139.0611-77.1095961229230Clb=3.5m/s t=-40.0C h=17.5% 403.000MHz Type=RS41-NG rdzTTGOsonde
KB3ZOXU23303102022-12-06 23:32:1239.0616-77.1177951269147Clb=3.5m/s t=-39.4C h=18.3% 403.000MHz Type=RS41-NG rdzTTGOsonde
KB3ZOXU23303102022-12-06 23:31:4939.0622-77.1254991199067Clb=4.0m/s t=-38.9C h=18.4% 403.000MHz Type=RS41-NG rdzTTGOsonde
KB3ZOXU23303102022-12-06 23:31:2839.0627-77.1333941248977Clb=5.1m/s t=-38.2C h=19.7% 403.000MHz Type=RS41-NG rdzTTGOsonde
KB3ZOXU23303102022-12-06 23:31:0839.0629-77.1411901208887Clb=4.6m/s t=-37.6C h=20.7% 403.000MHz Type=RS41-NG rdzTTGOsonde
KB3ZOXU23303102022-12-06 23:30:4639.0629-77.149881208797Clb=4.4m/s t=-37.0C h=19.3% 403.000MHz Type=RS41-NG rdzTTGOsonde
KB3ZOXU23303102022-12-06 23:30:2639.0627-77.1565881248714Clb=3.2m/s t=-36.2C h=18.9% 403.000MHz Type=RS41-NG rdzTTGOsonde
KB3ZOXU23303102022-12-06 23:30:0539.0624-77.1647891228627Clb=4.9m/s t=-35.6C h=19.9% 403.000MHz Type=RS41-NG rdzTTGOsonde
KB3ZOXU23303102022-12-06 23:29:4439.0623-77.1729901208540Clb=4.3m/s t=-35.0C h=23.7% 403.000MHz Type=RS41-NG rdzTTGOsonde
KB3ZOXU23303102022-12-06 23:29:2439.0624-77.1811911158454Clb=4.8m/s t=-34.8C h=31.6% 403.000MHz Type=RS41-NG rdzTTGOsonde
KB3ZOXU23303102022-12-06 23:29:1539.0624-77.1891921198358Clb=5.4m/s t=-34.2C h=39.7% 403.000MHz Type=RS41-NG rdzTTGOsonde
KB3ZOXU23303102022-12-06 23:28:4939.0623-77.197911198268Clb=2.9m/s t=-33.6C h=49.5% 403.000MHz Type=RS41-NG rdzTTGOsonde
KB3ZOXU23303102022-12-06 23:28:2439.062-77.2047841098177Clb=4.0m/s t=-32.9C h=57.5% 403.000MHz Type=RS41-NG rdzTTGOsonde
KB3ZOXU23303102022-12-06 23:27:5939.0616-77.2122881118084Clb=5.3m/s t=-32.0C h=55.7% 403.000MHz Type=RS41-NG rdzTTGOsonde
KB3ZOXU23303102022-12-06 23:27:3839.0612-77.2198881137996Clb=4.5m/s t=-31.2C h=52.4% 403.000MHz Type=RS41-NG rdzTTGOsonde
KB3ZOXU23303102022-12-06 23:27:1539.0607-77.2281871177895Clb=5.1m/s t=-30.2C h=48.8% 403.000MHz Type=RS41-NG rdzTTGOsonde
KB3ZOXU23303102022-12-06 23:26:5439.0603-77.2357851227810Clb=3.3m/s t=-29.5C h=45.0% 403.000MHz Type=RS41-NG rdzTTGOsonde
KB3ZOXU23303102022-12-06 23:26:2539.0595-77.2464841207679Clb=3.4m/s t=-28.6C h=39.8% 403.000MHz Type=RS41-NG rdzTTGOsonde
KB3ZOXU23303102022-12-06 23:26:0239.0589-77.2552941267583Clb=5.8m/s t=-28.2C 403.000MHz Type=RS41-NG rdzTTGOsonde
KB3ZOXU23303102022-12-06 23:25:4039.0588-77.2634971227454Clb=5.6m/s t=-27.7C 403.000MHz Type=RS41-NG rdzTTGOsonde
KB3ZOXU23303102022-12-06 23:25:1939.0582-77.2706941067331Clb=5.7m/s t=-26.8C 403.000MHz Type=RS41-NG rdzTTGOsonde
KB3ZOXU23303102022-12-06 23:25:0639.0576-77.2781901137191Clb=6.1m/s t=-26.0C 403.000MHz Type=RS41-NG rdzTTGOsonde
KB3ZOXU23303102022-12-06 23:24:3239.057-77.2858911027011Clb=8.7m/s t=-24.4C 403.000MHz Type=RS41-NG rdzTTGOsonde
KB3ZOXU23303102022-12-06 23:24:0839.0562-77.291380706884Clb=5.3m/s 403.000MHz Type=RS41-NG rdzTTGOsonde
KB3ZOXU23303102022-12-06 23:23:4639.0557-77.29776656756Clb=5.1m/s 403.000MHz Type=RS41-NG rdzTTGOsonde
KB3ZOXU23303102022-12-06 23:23:2539.0551-77.302679786658Clb=4.3m/s 403.000MHz Type=RS41-NG rdzTTGOsonde
KB3ZOXU23303102022-12-06 23:23:0039.0551-77.30980786526Clb=4.9m/s 403.000MHz Type=RS41-NG rdzTTGOsonde
KB3ZOXU23303102022-12-06 23:22:3939.0554-77.314787786401Clb=4.3m/s 403.000MHz Type=RS41-NG rdzTTGOsonde
KB3ZOXU23303102022-12-06 23:22:1439.0562-77.321588806251Clb=4.9m/s 403.000MHz Type=RS41-NG rdzTTGOsonde
KB3ZOXU23303102022-12-06 23:21:5239.0567-77.326894916142Clb=5.0m/s 403.000MHz Type=RS41 rdzTTGOsonde
KB3ZOXU23303102022-12-06 23:20:4739.0585-77.341195525768Clb=4.0m/s 403.000MHz Type=RS41 rdzTTGOsonde
KB3ZOXU23303102022-12-06 23:20:2539.0587-77.34586525668Clb=4.7m/s 403.000MHz Type=RS41 rdzTTGOsonde